sensor_id;sensor_type;location;lat;lon;timestamp;pressure;altitude;pressure_sealevel;temperature;humidity
39301;BME280;25019;42.626;23.380;2022-07-23T00:01:21;94641.56;;;19.63;51.75
39301;BME280;25019;42.626;23.380;2022-07-23T00:03:46;94665.50;;;19.78;52.50
39301;BME280;25019;42.626;23.380;2022-07-23T00:06:12;94689.66;;;19.83;52.54
39301;BME280;25019;42.626;23.380;2022-07-23T00:08:38;94610.31;;;19.34;52.78
39301;BME280;25019;42.626;23.380;2022-07-23T00:11:04;94689.97;;;19.82;52.70
39301;BME280;25019;42.626;23.380;2022-07-23T00:13:29;94664.78;;;19.58;52.85
39301;BME280;25019;42.626;23.380;2022-07-23T00:15:55;94673.09;;;19.62;53.23
39301;BME280;25019;42.626;23.380;2022-07-23T00:18:21;94672.38;;;19.56;53.51
39301;BME280;25019;42.626;23.380;2022-07-23T00:20:47;94657.44;;;19.50;53.89
39301;BME280;25019;42.626;23.380;2022-07-23T00:23:13;94695.53;;;19.71;54.61
39301;BME280;25019;42.626;23.380;2022-07-23T00:25:38;94638.44;;;19.27;54.79
39301;BME280;25019;42.626;23.380;2022-07-23T00:28:05;94688.53;;;19.56;56.05
39301;BME280;25019;42.626;23.380;2022-07-23T00:30:31;94643.44;;;19.20;57.12
39301;BME280;25019;42.626;23.380;2022-07-23T00:33:01;94699.44;;;19.51;57.55
39301;BME280;25019;42.626;23.380;2022-07-23T00:35:30;94670.72;;;19.13;58.48
39301;BME280;25019;42.626;23.380;2022-07-23T00:37:57;94713.25;;;19.44;58.39
39301;BME280;25019;42.626;23.380;2022-07-23T00:40:24;94708.78;;;19.40;58.29
39301;BME280;25019;42.626;23.380;2022-07-23T00:42:50;94709.94;;;19.34;58.54
39301;BME280;25019;42.626;23.380;2022-07-23T00:45:16;94695.78;;;19.28;58.34
39301;BME280;25019;42.626;23.380;2022-07-23T00:47:42;94682.91;;;19.25;58.77
39301;BME280;25019;42.626;23.380;2022-07-23T00:50:08;94622.28;;;18.80;58.67
39301;BME280;25019;42.626;23.380;2022-07-23T00:52:35;94681.72;;;19.17;58.94
39301;BME280;25019;42.626;23.380;2022-07-23T00:55:03;94633.16;;;18.89;59.23
39301;BME280;25019;42.626;23.380;2022-07-23T00:57:29;94687.50;;;19.24;59.24
39301;BME280;25019;42.626;23.380;2022-07-23T00:59:55;94666.94;;;19.14;59.57
39301;BME280;25019;42.626;23.380;2022-07-23T01:02:21;94680.13;;;19.16;59.90
39301;BME280;25019;42.626;23.380;2022-07-23T01:04:47;94664.34;;;19.09;60.53
39301;BME280;25019;42.626;23.380;2022-07-23T01:07:13;94663.94;;;19.02;60.61
39301;BME280;25019;42.626;23.380;2022-07-23T01:09:38;94637.69;;;18.75;60.84
39301;BME280;25019;42.626;23.380;2022-07-23T01:12:04;94557.63;;;18.19;61.30
39301;BME280;25019;42.626;23.380;2022-07-23T01:14:31;94683.41;;;18.94;61.46
39301;BME280;25019;42.626;23.380;2022-07-23T01:16:57;94701.81;;;19.06;61.22
39301;BME280;25019;42.626;23.380;2022-07-23T01:19:22;94612.59;;;18.46;60.92
39301;BME280;25019;42.626;23.380;2022-07-23T01:21:50;94597.94;;;18.38;59.92
39301;BME280;25019;42.626;23.380;2022-07-23T01:24:17;94692.00;;;18.96;59.55
39301;BME280;25019;42.626;23.380;2022-07-23T01:26:56;94684.50;;;18.93;58.97
39301;BME280;25019;42.626;23.380;2022-07-23T01:29:23;94677.81;;;18.90;58.84
39301;BME280;25019;42.626;23.380;2022-07-23T01:31:49;94611.50;;;18.47;58.56
39301;BME280;25019;42.626;23.380;2022-07-23T01:34:15;94689.38;;;18.91;58.47
39301;BME280;25019;42.626;23.380;2022-07-23T01:36:41;94565.56;;;18.10;58.73
39301;BME280;25019;42.626;23.380;2022-07-23T01:39:08;94659.28;;;18.69;58.75
39301;BME280;25019;42.626;23.380;2022-07-23T01:41:34;94689.44;;;18.85;58.80
39301;BME280;25019;42.626;23.380;2022-07-23T01:44:00;94663.88;;;18.69;58.41
39301;BME280;25019;42.626;23.380;2022-07-23T01:46:26;94671.06;;;18.74;58.39
39301;BME280;25019;42.626;23.380;2022-07-23T01:48:52;94544.69;;;17.83;58.19
39301;BME280;25019;42.626;23.380;2022-07-23T01:51:44;94597.44;;;18.17;57.98
39301;BME280;25019;42.626;23.380;2022-07-23T01:54:33;94678.44;;;18.68;58.18
39301;BME280;25019;42.626;23.380;2022-07-23T01:57:01;94633.38;;;18.40;58.69
39301;BME280;25019;42.626;23.380;2022-07-23T01:59:27;94688.88;;;18.69;58.65
39301;BME280;25019;42.626;23.380;2022-07-23T02:01:53;94694.38;;;18.64;58.77
39301;BME280;25019;42.626;23.380;2022-07-23T02:04:21;94680.75;;;18.55;58.78
39301;BME280;25019;42.626;23.380;2022-07-23T02:06:47;94619.78;;;18.12;59.58
39301;BME280;25019;42.626;23.380;2022-07-23T02:09:14;94673.63;;;18.46;59.54
39301;BME280;25019;42.626;23.380;2022-07-23T02:11:39;94673.94;;;18.44;59.58
39301;BME280;25019;42.626;23.380;2022-07-23T02:14:06;94675.31;;;18.41;59.72
39301;BME280;25019;42.626;23.380;2022-07-23T02:16:32;94682.00;;;18.44;59.92
39301;BME280;25019;42.626;23.380;2022-07-23T02:19:01;94681.00;;;18.40;60.19
39301;BME280;25019;42.626;23.380;2022-07-23T02:21:27;94652.50;;;18.20;60.59
39301;BME280;25019;42.626;23.380;2022-07-23T02:23:53;94624.59;;;17.96;60.72
39301;BME280;25019;42.626;23.380;2022-07-23T02:26:19;94683.16;;;18.38;60.33
39301;BME280;25019;42.626;23.380;2022-07-23T02:28:45;94685.56;;;18.39;59.83
39301;BME280;25019;42.626;23.380;2022-07-23T02:31:11;94640.38;;;18.03;59.91
39301;BME280;25019;42.626;23.380;2022-07-23T02:33:36;94616.22;;;17.98;59.92
39301;BME280;25019;42.626;23.380;2022-07-23T02:36:02;94680.03;;;18.31;60.63
39301;BME280;25019;42.626;23.380;2022-07-23T02:38:28;94638.19;;;18.05;60.06
39301;BME280;25019;42.626;23.380;2022-07-23T02:40:54;94619.03;;;17.88;60.07
39301;BME280;25019;42.626;23.380;2022-07-23T02:43:19;94689.63;;;18.37;60.16
39301;BME280;25019;42.626;23.380;2022-07-23T02:45:45;94695.31;;;18.35;60.36
39301;BME280;25019;42.626;23.380;2022-07-23T02:48:11;94702.56;;;18.35;60.86
39301;BME280;25019;42.626;23.380;2022-07-23T02:50:38;94698.63;;;18.27;60.80
39301;BME280;25019;42.626;23.380;2022-07-23T02:53:05;94684.31;;;18.12;60.92
39301;BME280;25019;42.626;23.380;2022-07-23T02:55:31;94693.97;;;18.14;60.92
39301;BME280;25019;42.626;23.380;2022-07-23T02:58:00;94666.53;;;17.92;61.15
39301;BME280;25019;42.626;23.380;2022-07-23T03:00:28;94704.97;;;18.17;61.57
39301;BME280;25019;42.626;23.380;2022-07-23T03:02:54;94630.97;;;17.57;61.87
39301;BME280;25019;42.626;23.380;2022-07-23T03:05:19;94702.69;;;18.05;62.36
39301;BME280;25019;42.626;23.380;2022-07-23T03:07:45;94712.34;;;18.06;62.93
39301;BME280;25019;42.626;23.380;2022-07-23T03:10:11;94720.41;;;18.06;62.72
39301;BME280;25019;42.626;23.380;2022-07-23T03:12:36;94662.06;;;17.63;63.10
39301;BME280;25019;42.626;23.380;2022-07-23T03:15:03;94721.38;;;17.91;64.21
39301;BME280;25019;42.626;23.380;2022-07-23T03:17:29;94721.13;;;17.88;64.70
39301;BME280;25019;42.626;23.380;2022-07-23T03:19:54;94601.50;;;17.03;64.66
39301;BME280;25019;42.626;23.380;2022-07-23T03:22:24;94696.31;;;17.72;64.88
39301;BME280;25019;42.626;23.380;2022-07-23T03:24:49;94723.22;;;17.91;65.09
39301;BME280;25019;42.626;23.380;2022-07-23T03:27:25;94657.69;;;17.43;65.61
39301;BME280;25019;42.626;23.380;2022-07-23T03:29:52;94729.44;;;17.91;65.79
39301;BME280;25019;42.626;23.380;2022-07-23T03:32:19;94727.56;;;17.87;65.92
39301;BME280;25019;42.626;23.380;2022-07-23T03:34:45;94729.44;;;17.91;65.32
39301;BME280;25019;42.626;23.380;2022-07-23T03:37:11;94710.09;;;17.89;65.22
39301;BME280;25019;42.626;23.380;2022-07-23T03:39:37;94708.91;;;18.01;64.90
39301;BME280;25019;42.626;23.380;2022-07-23T03:42:03;94733.47;;;18.37;64.42
39301;BME280;25019;42.626;23.380;2022-07-23T03:44:28;94720.88;;;18.52;63.86
39301;BME280;25019;42.626;23.380;2022-07-23T03:46:54;94676.47;;;18.54;62.89
39301;BME280;25019;42.626;23.380;2022-07-23T03:49:21;94603.91;;;18.35;62.12
39301;BME280;25019;42.626;23.380;2022-07-23T03:51:48;94732.44;;;19.57;61.22
39301;BME280;25019;42.626;23.380;2022-07-23T03:54:13;94732.97;;;19.87;60.50
39301;BME280;25019;42.626;23.380;2022-07-23T03:56:39;94715.00;;;20.10;59.46
39301;BME280;25019;42.626;23.380;2022-07-23T03:59:05;94740.53;;;20.55;58.18
39301;BME280;25019;42.626;23.380;2022-07-23T04:01:31;94674.13;;;20.45;57.16
39301;BME280;25019;42.626;23.380;2022-07-23T04:03:57;94739.66;;;21.19;56.61
39301;BME280;25019;42.626;23.380;2022-07-23T04:06:24;94673.94;;;21.01;55.70
39301;BME280;25019;42.626;23.380;2022-07-23T04:08:50;94737.34;;;21.58;54.63
39301;BME280;25019;42.626;23.380;2022-07-23T04:11:16;94684.22;;;21.53;54.06
39301;BME280;25019;42.626;23.380;2022-07-23T04:13:42;94711.47;;;22.06;53.07
39301;BME280;25019;42.626;23.380;2022-07-23T04:16:08;94662.97;;;22.09;52.18
39301;BME280;25019;42.626;23.380;2022-07-23T04:18:34;94656.94;;;22.12;51.51
39301;BME280;25019;42.626;23.380;2022-07-23T04:21:06;94738.53;;;22.99;50.83
39301;BME280;25019;42.626;23.380;2022-07-23T04:23:33;94686.75;;;22.92;50.03
39301;BME280;25019;42.626;23.380;2022-07-23T04:25:58;94739.59;;;23.51;49.65
39301;BME280;25019;42.626;23.380;2022-07-23T04:28:24;94732.84;;;23.83;49.20
39301;BME280;25019;42.626;23.380;2022-07-23T04:30:50;94646.16;;;23.57;48.21
39301;BME280;25019;42.626;23.380;2022-07-23T04:33:16;94693.75;;;24.14;47.49
39301;BME280;25019;42.626;23.380;2022-07-23T04:35:44;94749.06;;;24.91;46.45
39301;BME280;25019;42.626;23.380;2022-07-23T04:38:18;94748.16;;;25.20;45.88
39301;BME280;25019;42.626;23.380;2022-07-23T04:40:45;94691.63;;;25.13;45.25
39301;BME280;25019;42.626;23.380;2022-07-23T04:43:10;94743.28;;;25.93;43.75
39301;BME280;25019;42.626;23.380;2022-07-23T04:45:43;94726.88;;;26.27;43.13
39301;BME280;25019;42.626;23.380;2022-07-23T04:48:09;94659.06;;;25.97;42.75
39301;BME280;25019;42.626;23.380;2022-07-23T04:50:35;94674.94;;;26.44;41.88
39301;BME280;25019;42.626;23.380;2022-07-23T04:53:03;94738.22;;;27.07;41.50
39301;BME280;25019;42.626;23.380;2022-07-23T04:55:29;94715.06;;;27.13;41.34
39301;BME280;25019;42.626;23.380;2022-07-23T04:57:54;94693.13;;;27.10;41.07
39301;BME280;25019;42.626;23.380;2022-07-23T05:00:20;94754.81;;;27.71;40.50
39301;BME280;25019;42.626;23.380;2022-07-23T05:02:46;94751.91;;;27.80;39.89
39301;BME280;25019;42.626;23.380;2022-07-23T05:05:12;94700.13;;;27.84;39.23
39301;BME280;25019;42.626;23.380;2022-07-23T05:07:39;94737.28;;;28.36;38.72
39301;BME280;25019;42.626;23.380;2022-07-23T05:10:05;94730.59;;;28.50;38.27
39301;BME280;25019;42.626;23.380;2022-07-23T05:12:31;94704.38;;;28.65;37.72
39301;BME280;25019;42.626;23.380;2022-07-23T05:14:58;94746.66;;;29.07;37.00
39301;BME280;25019;42.626;23.380;2022-07-23T05:17:24;94669.81;;;28.73;36.76
39301;BME280;25019;42.626;23.380;2022-07-23T05:19:50;94711.69;;;29.16;37.15
39301;BME280;25019;42.626;23.380;2022-07-23T05:22:16;94710.88;;;29.35;36.42
39301;BME280;25019;42.626;23.380;2022-07-23T05:24:42;94756.34;;;29.83;36.40
39301;BME280;25019;42.626;23.380;2022-07-23T05:27:08;94714.78;;;29.77;36.14
39301;BME280;25019;42.626;23.380;2022-07-23T05:29:34;94755.47;;;30.22;35.41
39301;BME280;25019;42.626;23.380;2022-07-23T05:32:00;94700.25;;;29.96;35.61
39301;BME280;25019;42.626;23.380;2022-07-23T05:34:28;94728.88;;;30.22;35.22
39301;BME280;25019;42.626;23.380;2022-07-23T05:36:54;94665.59;;;30.04;35.17
39301;BME280;25019;42.626;23.380;2022-07-23T05:39:20;94749.19;;;30.71;34.90
39301;BME280;25019;42.626;23.380;2022-07-23T05:41:46;94703.44;;;30.75;34.37
39301;BME280;25019;42.626;23.380;2022-07-23T05:44:12;94732.69;;;31.25;34.52
39301;BME280;25019;42.626;23.380;2022-07-23T05:46:40;94740.78;;;31.48;34.25
39301;BME280;25019;42.626;23.380;2022-07-23T05:49:09;94707.91;;;31.56;33.55
39301;BME280;25019;42.626;23.380;2022-07-23T05:51:53;94668.31;;;31.53;32.98
39301;BME280;25019;42.626;23.380;2022-07-23T05:54:28;94752.50;;;32.24;33.55
39301;BME280;25019;42.626;23.380;2022-07-23T05:56:53;94754.97;;;32.33;32.69
39301;BME280;25019;42.626;23.380;2022-07-23T05:59:19;94758.50;;;31.92;33.35
39301;BME280;25019;42.626;23.380;2022-07-23T06:01:45;94745.75;;;32.15;33.08
39301;BME280;25019;42.626;23.380;2022-07-23T06:04:11;94713.19;;;32.13;32.98
39301;BME280;25019;42.626;23.380;2022-07-23T06:06:42;94753.19;;;32.59;32.92
39301;BME280;25019;42.626;23.380;2022-07-23T06:09:09;94753.50;;;32.50;32.59
39301;BME280;25019;42.626;23.380;2022-07-23T06:11:40;94705.38;;;32.22;32.73
39301;BME280;25019;42.626;23.380;2022-07-23T06:14:06;94745.31;;;32.54;32.99
39301;BME280;25019;42.626;23.380;2022-07-23T06:16:48;94680.66;;;32.22;33.18
39301;BME280;25019;42.626;23.380;2022-07-23T06:19:14;94683.81;;;32.21;33.53
39301;BME280;25019;42.626;23.380;2022-07-23T06:21:40;94686.31;;;32.40;33.05
39301;BME280;25019;42.626;23.380;2022-07-23T06:24:06;94616.41;;;31.78;32.53
39301;BME280;25019;42.626;23.380;2022-07-23T06:26:31;94730.06;;;32.64;31.76
39301;BME280;25019;42.626;23.380;2022-07-23T06:28:58;94670.50;;;32.26;31.23
39301;BME280;25019;42.626;23.380;2022-07-23T06:31:25;94675.25;;;32.30;31.54
39301;BME280;25019;42.626;23.380;2022-07-23T06:33:51;94634.44;;;32.32;32.20
39301;BME280;25019;42.626;23.380;2022-07-23T06:36:17;94739.06;;;32.64;32.42
39301;BME280;25019;42.626;23.380;2022-07-23T06:38:42;94740.16;;;32.45;32.68
39301;BME280;25019;42.626;23.380;2022-07-23T06:41:08;94700.03;;;31.88;33.00
39301;BME280;25019;42.626;23.380;2022-07-23T06:43:34;94703.09;;;31.11;33.48
39301;BME280;25019;42.626;23.380;2022-07-23T06:46:00;94729.09;;;30.90;34.22
39301;BME280;25019;42.626;23.380;2022-07-23T06:48:26;94697.75;;;30.34;35.04
39301;BME280;25019;42.626;23.380;2022-07-23T06:50:52;94741.81;;;30.48;35.28
39301;BME280;25019;42.626;23.380;2022-07-23T06:53:22;94746.16;;;30.26;35.06
39301;BME280;25019;42.626;23.380;2022-07-23T06:55:48;94737.09;;;29.99;35.38
39301;BME280;25019;42.626;23.380;2022-07-23T06:58:14;94733.59;;;29.79;36.15
39301;BME280;25019;42.626;23.380;2022-07-23T07:00:40;94748.06;;;29.36;37.51
39301;BME280;25019;42.626;23.380;2022-07-23T07:03:05;94682.09;;;28.27;38.10
39301;BME280;25019;42.626;23.380;2022-07-23T07:05:32;94738.25;;;28.44;38.51
39301;BME280;25019;42.626;23.380;2022-07-23T07:07:57;94738.69;;;28.30;40.31
39301;BME280;25019;42.626;23.380;2022-07-23T07:10:23;94715.66;;;28.11;40.54
39301;BME280;25019;42.626;23.380;2022-07-23T07:12:52;94733.84;;;27.91;40.33
39301;BME280;25019;42.626;23.380;2022-07-23T07:15:17;94677.38;;;27.31;40.08
39301;BME280;25019;42.626;23.380;2022-07-23T07:17:43;94723.19;;;27.70;39.89
39301;BME280;25019;42.626;23.380;2022-07-23T07:20:09;94656.50;;;27.23;41.09
39301;BME280;25019;42.626;23.380;2022-07-23T07:22:35;94728.63;;;27.54;40.27
39301;BME280;25019;42.626;23.380;2022-07-23T07:25:01;94635.34;;;26.75;39.97
39301;BME280;25019;42.626;23.380;2022-07-23T07:27:27;94675.78;;;27.02;40.36
39301;BME280;25019;42.626;23.380;2022-07-23T07:29:52;94658.34;;;27.19;40.16
39301;BME280;25019;42.626;23.380;2022-07-23T07:32:18;94724.44;;;28.05;39.42
39301;BME280;25019;42.626;23.380;2022-07-23T07:34:44;94641.50;;;27.93;39.52
39301;BME280;25019;42.626;23.380;2022-07-23T07:37:09;94698.69;;;28.54;39.08
39301;BME280;25019;42.626;23.380;2022-07-23T07:39:35;94699.25;;;28.63;38.21
39301;BME280;25019;42.626;23.380;2022-07-23T07:42:01;94702.06;;;28.83;38.06
39301;BME280;25019;42.626;23.380;2022-07-23T07:44:26;94711.25;;;29.14;37.41
39301;BME280;25019;42.626;23.380;2022-07-23T07:46:52;94663.13;;;29.09;36.27
39301;BME280;25019;42.626;23.380;2022-07-23T07:49:20;94596.97;;;28.80;36.12
39301;BME280;25019;42.626;23.380;2022-07-23T07:51:47;94701.91;;;29.15;35.46
39301;BME280;25019;42.626;23.380;2022-07-23T07:54:12;94691.13;;;29.03;35.78
39301;BME280;25019;42.626;23.380;2022-07-23T07:56:38;94704.28;;;29.17;36.00
39301;BME280;25019;42.626;23.380;2022-07-23T07:59:04;94662.53;;;28.61;36.20
39301;BME280;25019;42.626;23.380;2022-07-23T08:01:29;94714.91;;;28.82;36.50
39301;BME280;25019;42.626;23.380;2022-07-23T08:03:55;94685.88;;;28.58;36.28
39301;BME280;25019;42.626;23.380;2022-07-23T08:06:21;94709.56;;;28.70;36.15
39301;BME280;25019;42.626;23.380;2022-07-23T08:08:47;94672.19;;;28.38;36.91
39301;BME280;25019;42.626;23.380;2022-07-23T08:11:13;94647.41;;;28.11;37.58
39301;BME280;25019;42.626;23.380;2022-07-23T08:13:41;94705.72;;;28.55;37.67
39301;BME280;25019;42.626;23.380;2022-07-23T08:16:07;94698.81;;;28.61;37.35
39301;BME280;25019;42.626;23.380;2022-07-23T08:18:32;94688.91;;;28.53;36.84
39301;BME280;25019;42.626;23.380;2022-07-23T08:20:58;94701.84;;;28.56;37.23
39301;BME280;25019;42.626;23.380;2022-07-23T08:23:23;94671.41;;;28.38;37.36
39301;BME280;25019;42.626;23.380;2022-07-23T08:25:49;94620.34;;;28.06;37.44
39301;BME280;25019;42.626;23.380;2022-07-23T08:28:15;94669.25;;;28.47;36.86
39301;BME280;25019;42.626;23.380;2022-07-23T08:30:43;94668.03;;;28.45;37.30
39301;BME280;25019;42.626;23.380;2022-07-23T08:33:13;94667.66;;;28.46;37.12
39301;BME280;25019;42.626;23.380;2022-07-23T08:35:42;94701.91;;;28.60;37.38
39301;BME280;25019;42.626;23.380;2022-07-23T08:38:13;94696.63;;;28.67;36.55
39301;BME280;25019;42.626;23.380;2022-07-23T08:40:48;94681.28;;;28.62;36.16
39301;BME280;25019;42.626;23.380;2022-07-23T08:43:18;94692.28;;;28.82;35.94
39301;BME280;25019;42.626;23.380;2022-07-23T08:45:46;94689.97;;;28.84;37.09
39301;BME280;25019;42.626;23.380;2022-07-23T08:48:17;94696.00;;;28.93;36.21
39301;BME280;25019;42.626;23.380;2022-07-23T08:50:48;94691.91;;;29.03;36.94
39301;BME280;25019;42.626;23.380;2022-07-23T08:53:15;94694.50;;;29.15;35.99
39301;BME280;25019;42.626;23.380;2022-07-23T08:55:47;94676.22;;;29.00;35.44
39301;BME280;25019;42.626;23.380;2022-07-23T08:58:13;94698.81;;;29.17;35.45
39301;BME280;25019;42.626;23.380;2022-07-23T09:00:39;94656.22;;;28.76;35.67
39301;BME280;25019;42.626;23.380;2022-07-23T09:03:05;94678.31;;;29.07;35.71
39301;BME280;25019;42.626;23.380;2022-07-23T09:05:30;94648.09;;;28.99;35.40
39301;BME280;25019;42.626;23.380;2022-07-23T09:08:09;94684.84;;;29.41;34.95
39301;BME280;25019;42.626;23.380;2022-07-23T09:15:53;94673.69;;;29.73;34.18
39301;BME280;25019;42.626;23.380;2022-07-23T09:18:19;94674.91;;;29.76;34.32
39301;BME280;25019;42.626;23.380;2022-07-23T09:20:45;94665.78;;;29.92;33.79
39301;BME280;25019;42.626;23.380;2022-07-23T09:23:11;94670.97;;;29.97;33.97
39301;BME280;25019;42.626;23.380;2022-07-23T09:25:36;94633.75;;;29.69;33.52
39301;BME280;25019;42.626;23.380;2022-07-23T09:28:02;94671.00;;;29.77;33.64
39301;BME280;25019;42.626;23.380;2022-07-23T09:30:30;94680.19;;;29.88;33.63
39301;BME280;25019;42.626;23.380;2022-07-23T09:33:14;94600.00;;;29.38;33.10
39301;BME280;25019;42.626;23.380;2022-07-23T09:35:48;94668.88;;;29.90;33.04
39301;BME280;25019;42.626;23.380;2022-07-23T09:38:14;94665.66;;;30.08;32.94
39301;BME280;25019;42.626;23.380;2022-07-23T09:40:40;94628.63;;;29.90;32.73
39301;BME280;25019;42.626;23.380;2022-07-23T09:43:06;94647.53;;;30.26;32.97
39301;BME280;25019;42.626;23.380;2022-07-23T09:45:32;94654.38;;;30.40;33.21
39301;BME280;25019;42.626;23.380;2022-07-23T09:48:15;94647.94;;;30.55;32.64
39301;BME280;25019;42.626;23.380;2022-07-23T09:50:41;94650.81;;;30.62;32.16
39301;BME280;25019;42.626;23.380;2022-07-23T09:53:08;94652.53;;;30.74;31.26
39301;BME280;25019;42.626;23.380;2022-07-23T09:55:35;94633.34;;;30.74;31.35
39301;BME280;25019;42.626;23.380;2022-07-23T09:58:05;94647.63;;;30.91;31.60
39301;BME280;25019;42.626;23.380;2022-07-23T10:00:40;94631.19;;;30.91;31.07
39301;BME280;25019;42.626;23.380;2022-07-23T10:03:06;94641.22;;;31.14;30.65
39301;BME280;25019;42.626;23.380;2022-07-23T10:05:52;94610.53;;;31.01;30.25
39301;BME280;25019;42.626;23.380;2022-07-23T10:08:28;94573.91;;;30.82;29.35
39301;BME280;25019;42.626;23.380;2022-07-23T10:11:15;94523.97;;;30.62;29.05
39301;BME280;25019;42.626;23.380;2022-07-23T10:13:54;94626.72;;;31.47;29.88
39301;BME280;25019;42.626;23.380;2022-07-23T10:16:45;94551.44;;;31.07;29.34
39301;BME280;25019;42.626;23.380;2022-07-23T10:19:10;94630.22;;;31.48;28.34
39301;BME280;25019;42.626;23.380;2022-07-23T10:24:35;94626.84;;;31.65;28.12
39301;BME280;25019;42.626;23.380;2022-07-23T10:29:51;94625.69;;;31.66;27.41
39301;BME280;25019;42.626;23.380;2022-07-23T10:32:33;94602.53;;;31.64;26.79
39301;BME280;25019;42.626;23.380;2022-07-23T10:38:37;94609.84;;;31.90;26.60
39301;BME280;25019;42.626;23.380;2022-07-23T10:41:06;94553.13;;;31.60;25.51
39301;BME280;25019;42.626;23.380;2022-07-23T10:43:32;94595.78;;;32.03;25.56
39301;BME280;25019;42.626;23.380;2022-07-23T10:46:21;94597.47;;;32.18;24.34
39301;BME280;25019;42.626;23.380;2022-07-23T10:49:20;94593.25;;;32.35;25.16
39301;BME280;25019;42.626;23.380;2022-07-23T10:57:11;94594.91;;;32.54;25.00
39301;BME280;25019;42.626;23.380;2022-07-23T11:02:39;94553.28;;;32.52;24.50
39301;BME280;25019;42.626;23.380;2022-07-23T11:05:10;94488.38;;;32.19;21.94
39301;BME280;25019;42.626;23.380;2022-07-23T11:10:39;94529.53;;;32.11;21.30
39301;BME280;25019;42.626;23.380;2022-07-23T11:24:11;94542.25;;;32.41;22.09
39301;BME280;25019;42.626;23.380;2022-07-23T11:32:03;94553.44;;;32.85;20.48
39301;BME280;25019;42.626;23.380;2022-07-23T11:36:59;94534.22;;;32.99;22.05
39301;BME280;25019;42.626;23.380;2022-07-23T11:39:27;94534.19;;;32.85;21.39
39301;BME280;25019;42.626;23.380;2022-07-23T11:41:53;94545.19;;;32.92;21.15
39301;BME280;25019;42.626;23.380;2022-07-23T11:44:28;94546.81;;;33.08;20.54
39301;BME280;25019;42.626;23.380;2022-07-23T11:46:58;94540.91;;;33.20;20.57
39301;BME280;25019;42.626;23.380;2022-07-23T11:49:25;94494.13;;;32.98;20.03
39301;BME280;25019;42.626;23.380;2022-07-23T11:52:12;94528.41;;;33.41;19.70
39301;BME280;25019;42.626;23.380;2022-07-23T11:57:26;94505.16;;;33.13;19.40
39301;BME280;25019;42.626;23.380;2022-07-23T11:59:57;94526.00;;;33.28;19.67
39301;BME280;25019;42.626;23.380;2022-07-23T12:02:24;94530.69;;;33.13;19.64
39301;BME280;25019;42.626;23.380;2022-07-23T12:04:52;94527.53;;;33.00;20.36
39301;BME280;25019;42.626;23.380;2022-07-23T12:07:33;94521.25;;;33.18;19.58
39301;BME280;25019;42.626;23.380;2022-07-23T12:10:02;94463.91;;;33.02;19.73
39301;BME280;25019;42.626;23.380;2022-07-23T12:12:36;94497.34;;;33.44;18.20
39301;BME280;25019;42.626;23.380;2022-07-23T12:15:03;94510.28;;;33.69;19.78
39301;BME280;25019;42.626;23.380;2022-07-23T12:17:32;94515.38;;;33.85;19.75
39301;BME280;25019;42.626;23.380;2022-07-23T12:19:59;94507.50;;;33.83;19.41
39301;BME280;25019;42.626;23.380;2022-07-23T12:22:26;94509.47;;;33.94;19.38
39301;BME280;25019;42.626;23.380;2022-07-23T12:25:04;94467.41;;;33.68;18.67
39301;BME280;25019;42.626;23.380;2022-07-23T12:27:30;94502.78;;;33.95;18.84
39301;BME280;25019;42.626;23.380;2022-07-23T12:29:56;94459.94;;;33.68;19.29
39301;BME280;25019;42.626;23.380;2022-07-23T12:32:25;94487.00;;;33.88;18.52
39301;BME280;25019;42.626;23.380;2022-07-23T12:37:37;94474.84;;;33.82;18.11
39301;BME280;25019;42.626;23.380;2022-07-23T12:40:30;94439.47;;;33.76;17.26
39301;BME280;25019;42.626;23.380;2022-07-23T12:43:08;94492.44;;;34.24;17.68
39301;BME280;25019;42.626;23.380;2022-07-23T12:46:07;94489.66;;;34.31;17.30
39301;BME280;25019;42.626;23.380;2022-07-23T12:51:19;94484.88;;;34.50;17.99
39301;BME280;25019;42.626;23.380;2022-07-23T12:53:50;94484.50;;;34.52;17.92
39301;BME280;25019;42.626;23.380;2022-07-23T12:56:31;94464.91;;;34.28;16.90
39301;BME280;25019;42.626;23.380;2022-07-23T13:01:41;94475.53;;;34.26;17.32
39301;BME280;25019;42.626;23.380;2022-07-23T13:06:36;94419.78;;;33.93;17.40
39301;BME280;25019;42.626;23.380;2022-07-23T13:09:05;94469.56;;;34.38;17.70
39301;BME280;25019;42.626;23.380;2022-07-23T13:11:31;94384.78;;;33.75;17.60
39301;BME280;25019;42.626;23.380;2022-07-23T13:13:57;94378.53;;;33.71;17.35
39301;BME280;25019;42.626;23.380;2022-07-23T13:16:29;94468.75;;;34.45;16.84
39301;BME280;25019;42.626;23.380;2022-07-23T13:18:55;94408.22;;;34.23;16.19
39301;BME280;25019;42.626;23.380;2022-07-23T13:21:22;94447.50;;;34.45;15.87
39301;BME280;25019;42.626;23.380;2022-07-23T13:23:48;94367.06;;;33.90;16.55
39301;BME280;25019;42.626;23.380;2022-07-23T13:26:14;94477.28;;;34.72;17.02
39301;BME280;25019;42.626;23.380;2022-07-23T13:28:40;94441.94;;;34.56;16.39
39301;BME280;25019;42.626;23.380;2022-07-23T13:31:06;94452.94;;;34.60;16.89
39301;BME280;25019;42.626;23.380;2022-07-23T13:33:33;94464.25;;;34.76;16.13
39301;BME280;25019;42.626;23.380;2022-07-23T13:35:58;94465.00;;;34.84;16.50
39301;BME280;25019;42.626;23.380;2022-07-23T13:38:24;94418.25;;;34.62;16.95
39301;BME280;25019;42.626;23.380;2022-07-23T13:40:51;94461.00;;;34.96;15.64
39301;BME280;25019;42.626;23.380;2022-07-23T13:43:20;94457.06;;;34.93;15.55
39301;BME280;25019;42.626;23.380;2022-07-23T13:45:46;94412.69;;;34.73;16.34
39301;BME280;25019;42.626;23.380;2022-07-23T13:48:13;94433.44;;;34.89;15.52
39301;BME280;25019;42.626;23.380;2022-07-23T13:50:40;94452.66;;;35.07;15.68
39301;BME280;25019;42.626;23.380;2022-07-23T13:53:09;94440.41;;;35.08;16.34